Altitude, Mississippi
Current Conditions -  °F | °C
As of 12:15 PM on Thursday 29 Jan 2015 (Local Time) from KCRX Reporting Station
Clear Clear  
Wind Chill: 18°   Ceiling: Unl
Heat Index: 18°   Visibility: 10mi
Dew Point:   Wind: 8mph
Humidity: 49%   Direction: 240°WSW
Pressure: 30.07"   Gusts: 15mph
Location:  34.6741°N, 88.5234°W
Report Text: KCRX 291815Z AUTO 24007G13KT 200V270 10SM CLR 18/07 A3007 RMK AO2
Loading
Personal Weather Stations






























Interactive Weather Map New forecast layout! Learn more

10-Day Weather Forecast

Advertisements
Track Severe Weather on mobile